createdAt,value
2022-09-03T00:00:15.060Z,12.74
2022-09-03T00:03:16.477Z,12.80
2022-09-03T00:06:17.700Z,12.84
2022-09-03T00:09:36.101Z,12.85
2022-09-03T00:12:34.701Z,12.88
2022-09-03T00:15:24.716Z,12.91
2022-09-03T00:18:22.224Z,12.96
2022-09-03T00:21:22.542Z,13.01
2022-09-03T00:24:15.623Z,13.06
2022-09-03T00:27:11.673Z,13.11
2022-09-03T00:30:21.467Z,13.15
2022-09-03T00:33:27.375Z,13.16
2022-09-03T00:36:45.218Z,13.17
2022-09-03T00:39:33.766Z,13.21
2022-09-03T00:43:16.323Z,13.24
2022-09-03T00:46:51.283Z,13.23
2022-09-03T00:49:48.545Z,13.20
2022-09-03T00:53:00.944Z,13.15
2022-09-03T00:56:25.138Z,13.08
2022-09-03T00:59:35.908Z,13.00
2022-09-03T01:02:58.565Z,12.87
2022-09-03T01:06:13.449Z,12.76
2022-09-03T01:09:09.670Z,12.64
2022-09-03T01:12:03.480Z,12.46
2022-09-03T01:15:06.856Z,12.33
2022-09-03T01:18:21.888Z,12.23
2022-09-03T01:21:28.229Z,12.11
2022-09-03T01:24:35.965Z,12.03
2022-09-03T01:27:50.793Z,11.98
2022-09-03T01:30:49.335Z,11.89
2022-09-03T01:34:25.843Z,11.80
2022-09-03T01:37:39.110Z,11.70
2022-09-03T01:41:36.790Z,11.64
2022-09-03T01:45:14.293Z,11.54
2022-09-03T01:48:12.117Z,11.49
2022-09-03T01:51:19.809Z,11.46
2022-09-03T01:54:38.654Z,11.41
2022-09-03T01:58:06.763Z,11.36
2022-09-03T02:01:07.710Z,11.29
2022-09-03T02:04:00.124Z,11.23
2022-09-03T02:06:49.058Z,11.20
2022-09-03T02:09:36.730Z,11.16
2022-09-03T02:12:25.466Z,11.15
2022-09-03T02:15:19.526Z,11.13
2022-09-03T02:18:17.293Z,11.10
2022-09-03T02:21:05.616Z,11.11
2022-09-03T02:23:54.109Z,11.07
2022-09-03T02:26:41.917Z,11.03
2022-09-03T02:29:31.038Z,11.01
2022-09-03T02:32:19.193Z,10.98
2022-09-03T02:35:08.140Z,10.94
2022-09-03T02:37:56.360Z,10.90
2022-09-03T02:40:45.860Z,10.85
2022-09-03T02:43:45.783Z,10.83
2022-09-03T02:47:03.055Z,10.80
2022-09-03T02:49:52.745Z,10.77
2022-09-03T02:52:40.967Z,10.73
2022-09-03T02:55:30.665Z,10.69
2022-09-03T02:58:18.665Z,10.66
2022-09-03T03:01:06.745Z,10.64
2022-09-03T03:03:54.640Z,10.63
2022-09-03T03:06:42.719Z,10.65
2022-09-03T03:09:35.783Z,10.67
2022-09-03T03:12:23.613Z,10.70
2022-09-03T03:15:11.649Z,10.72
2022-09-03T03:17:59.659Z,10.73
2022-09-03T03:20:50.355Z,10.74
2022-09-03T03:23:39.752Z,10.76
2022-09-03T03:26:27.269Z,10.80
2022-09-03T03:29:20.871Z,10.84
2022-09-03T03:32:09.101Z,10.88
2022-09-03T03:34:57.097Z,10.90
2022-09-03T03:37:45.448Z,10.91
2022-09-03T03:40:35.016Z,10.90
2022-09-03T03:43:23.055Z,10.90
2022-09-03T03:46:12.178Z,10.90
2022-09-03T03:49:01.359Z,10.88
2022-09-03T03:51:49.361Z,10.86
2022-09-03T03:54:37.683Z,10.84
2022-09-03T03:57:26.046Z,10.81
2022-09-03T04:00:15.581Z,10.79
2022-09-03T04:03:04.775Z,10.77
2022-09-03T04:05:59.346Z,10.74
2022-09-03T04:08:49.764Z,10.71
2022-09-03T04:11:37.454Z,10.66
2022-09-03T04:14:27.356Z,10.61
2022-09-03T04:17:15.799Z,10.58
2022-09-03T04:20:04.813Z,10.56
2022-09-03T04:22:52.694Z,10.54
2022-09-03T04:25:42.097Z,10.52
2022-09-03T04:28:30.065Z,10.51
2022-09-03T04:31:21.347Z,10.51
2022-09-03T04:34:09.640Z,10.52
2022-09-03T04:37:00.718Z,10.53
2022-09-03T04:39:48.805Z,10.55
2022-09-03T04:42:36.741Z,10.55
2022-09-03T04:45:24.850Z,10.56
2022-09-03T04:48:13.868Z,10.58
2022-09-03T04:51:07.535Z,10.62
2022-09-03T04:54:00.359Z,10.68
2022-09-03T04:56:48.888Z,10.72
2022-09-03T04:59:37.243Z,10.77
2022-09-03T05:02:25.617Z,10.83
2022-09-03T05:05:13.971Z,10.90
2022-09-03T05:08:02.267Z,10.98
2022-09-03T05:10:50.115Z,11.04
2022-09-03T05:13:43.380Z,11.12
2022-09-03T05:16:31.636Z,11.17
2022-09-03T05:19:19.864Z,11.18
2022-09-03T05:22:08.315Z,11.17
2022-09-03T05:24:58.261Z,11.15
2022-09-03T05:27:47.206Z,11.15
2022-09-03T05:30:36.667Z,11.17
2022-09-03T05:33:25.138Z,11.20
2022-09-03T05:36:17.182Z,11.24
2022-09-03T05:39:09.563Z,11.27
2022-09-03T05:41:57.491Z,11.33
2022-09-03T05:44:45.705Z,11.41
2022-09-03T05:47:33.620Z,11.47
2022-09-03T05:50:21.587Z,11.57
2022-09-03T05:53:09.753Z,11.71
2022-09-03T05:56:00.353Z,11.86
2022-09-03T05:58:52.722Z,12.01
2022-09-03T06:01:50.702Z,12.32
2022-09-03T06:04:40.295Z,12.74
2022-09-03T06:07:28.388Z,13.15
2022-09-03T06:10:20.225Z,13.52
2022-09-03T06:13:10.876Z,13.89
2022-09-03T06:16:08.703Z,14.23
2022-09-03T06:18:57.003Z,14.60
2022-09-03T06:21:48.521Z,14.84
2022-09-03T06:24:37.000Z,14.91
2022-09-03T06:27:26.213Z,15.00
2022-09-03T06:30:17.214Z,15.01
2022-09-03T06:33:04.877Z,14.94
2022-09-03T06:35:58.190Z,14.84
2022-09-03T06:38:47.630Z,14.78
2022-09-03T06:41:36.155Z,14.68
2022-09-03T06:44:24.327Z,14.58
2022-09-03T06:47:12.244Z,14.45
2022-09-03T06:50:02.329Z,14.36
2022-09-03T06:52:57.059Z,14.34
2022-09-03T06:55:53.867Z,14.37
2022-09-03T06:58:45.592Z,14.46
2022-09-03T07:01:34.987Z,14.52
2022-09-03T07:04:25.175Z,14.51
2022-09-03T07:07:14.203Z,14.51
2022-09-03T07:10:02.567Z,14.55
2022-09-03T07:12:50.524Z,14.59
2022-09-03T07:15:38.483Z,14.65
2022-09-03T07:18:26.254Z,14.60
2022-09-03T07:21:27.221Z,14.53
2022-09-03T07:24:15.476Z,14.51
2022-09-03T07:27:09.836Z,14.44
2022-09-03T07:30:00.686Z,14.41
2022-09-03T07:32:51.154Z,14.38
2022-09-03T07:35:39.150Z,14.32
2022-09-03T07:38:27.034Z,14.27
2022-09-03T07:41:26.807Z,14.25
2022-09-03T07:44:19.981Z,14.24
2022-09-03T07:47:10.252Z,14.37
2022-09-03T07:49:58.209Z,14.60
2022-09-03T07:52:46.128Z,14.87
2022-09-03T07:55:34.134Z,15.18
2022-09-03T07:58:24.267Z,15.48
2022-09-03T08:01:18.197Z,15.80
2022-09-03T08:04:09.710Z,16.19
2022-09-03T08:06:59.509Z,16.53
2022-09-03T08:09:51.151Z,16.83
2022-09-03T08:12:39.420Z,16.99
2022-09-03T08:15:27.875Z,17.07
2022-09-03T08:18:15.966Z,17.14
2022-09-03T08:21:16.314Z,17.09
2022-09-03T08:24:04.864Z,17.06
2022-09-03T08:26:52.814Z,16.98
2022-09-03T08:29:40.696Z,16.97
2022-09-03T08:32:31.044Z,17.09
2022-09-03T08:35:22.133Z,17.15
2022-09-03T08:38:11.013Z,17.23
2022-09-03T08:41:17.535Z,17.31
2022-09-03T08:44:33.444Z,17.43
2022-09-03T08:47:46.644Z,17.81
2022-09-03T08:50:56.208Z,18.76
2022-09-03T08:53:56.252Z,19.93
2022-09-03T08:56:44.836Z,20.27
2022-09-03T08:59:33.951Z,20.54
2022-09-03T09:03:01.512Z,21.01
2022-09-03T09:06:17.193Z,21.47
2022-09-03T09:09:39.415Z,22.03
2022-09-03T09:12:44.201Z,22.29
2022-09-03T09:16:40.557Z,23.50
2022-09-03T09:20:16.794Z,23.30
2022-09-03T09:23:09.228Z,23.77
2022-09-03T09:26:01.847Z,24.10
2022-09-03T09:29:09.452Z,24.77
2022-09-03T09:31:58.234Z,26.04
2022-09-03T09:34:51.837Z,26.39
2022-09-03T09:37:51.209Z,26.66
2022-09-03T09:40:45.642Z,27.92
2022-09-03T09:43:34.068Z,29.26
2022-09-03T09:46:31.253Z,29.72
2022-09-03T09:49:36.045Z,30.12
2022-09-03T09:52:30.436Z,29.10
2022-09-03T09:55:20.607Z,27.64
2022-09-03T09:58:14.701Z,26.31
2022-09-03T10:01:13.565Z,26.81
2022-09-03T10:04:24.558Z,28.37
2022-09-03T10:07:33.283Z,28.42
2022-09-03T10:10:22.277Z,28.02
2022-09-03T10:13:31.163Z,29.02
2022-09-03T10:16:36.296Z,29.99
2022-09-03T10:19:40.854Z,29.58
2022-09-03T10:22:35.234Z,30.34
2022-09-03T10:25:29.893Z,29.71
2022-09-03T10:28:18.599Z,29.95
2022-09-03T10:31:37.032Z,29.35
2022-09-03T10:34:59.047Z,27.65
2022-09-03T10:38:00.873Z,27.42
2022-09-03T10:41:09.803Z,27.05
2022-09-03T10:44:19.762Z,26.56
2022-09-03T10:47:19.826Z,26.47
2022-09-03T10:50:59.929Z,27.23
2022-09-03T10:54:36.094Z,27.18
2022-09-03T10:58:11.476Z,27.07
2022-09-03T11:01:22.411Z,27.00
2022-09-03T11:05:01.216Z,27.20
2022-09-03T11:08:03.659Z,25.93
2022-09-03T11:11:00.895Z,24.83
2022-09-03T11:14:00.322Z,25.50
2022-09-03T11:17:03.176Z,26.29
2022-09-03T11:19:58.979Z,26.99
2022-09-03T11:22:49.778Z,26.80
2022-09-03T11:25:54.830Z,26.13
2022-09-03T11:28:57.249Z,26.24
2022-09-03T11:31:58.062Z,26.02
2022-09-03T11:34:52.736Z,26.39
2022-09-03T11:38:00.012Z,26.79
2022-09-03T11:41:27.373Z,27.05
2022-09-03T11:45:16.783Z,27.02
2022-09-03T11:48:48.309Z,26.93
2022-09-03T11:51:42.145Z,26.70
2022-09-03T11:54:33.656Z,26.46
2022-09-03T11:57:30.795Z,26.16
2022-09-03T12:00:21.765Z,25.84
2022-09-03T12:03:16.471Z,24.90
2022-09-03T12:06:49.663Z,24.46
2022-09-03T12:10:19.431Z,23.80
2022-09-03T12:13:40.622Z,23.11
2022-09-03T12:16:56.699Z,22.57
2022-09-03T12:19:56.377Z,21.84
2022-09-03T12:22:44.191Z,21.37
2022-09-03T12:25:32.535Z,20.99
2022-09-03T12:28:26.393Z,20.58
2022-09-03T12:31:24.755Z,20.31
2022-09-03T12:34:20.196Z,20.09
2022-09-03T12:40:32.922Z,19.28
2022-09-03T12:46:34.440Z,18.99
2022-09-03T12:49:30.427Z,18.83
2022-09-03T12:52:33.171Z,18.63
2022-09-03T12:55:54.112Z,18.41
2022-09-03T12:59:02.356Z,18.34
2022-09-03T13:01:58.762Z,18.14
2022-09-03T13:04:47.512Z,17.89
2022-09-03T13:07:39.057Z,17.81
2022-09-03T13:10:39.062Z,17.72
2022-09-03T13:13:36.781Z,17.67
2022-09-03T13:16:46.792Z,17.63
2022-09-03T13:19:51.034Z,17.69
2022-09-03T19:45:26.634Z,9.74
2022-09-03T19:49:18.224Z,9.70
2022-09-03T19:52:40.148Z,9.65
2022-09-03T19:55:55.028Z,9.59
2022-09-03T19:59:29.717Z,9.51
2022-09-03T20:02:36.326Z,9.43
2022-09-03T20:05:43.863Z,9.38
2022-09-03T20:08:52.835Z,9.32
2022-09-03T20:11:41.915Z,9.28
2022-09-03T20:14:33.219Z,9.25
2022-09-03T20:18:19.684Z,9.22
2022-09-03T20:21:23.740Z,9.16
2022-09-03T20:24:34.234Z,9.11
2022-09-03T20:27:58.751Z,9.05
2022-09-03T20:31:25.089Z,8.98
2022-09-03T20:34:35.330Z,8.94
2022-09-03T20:37:30.157Z,8.91
2022-09-03T20:40:40.158Z,8.90
2022-09-03T20:43:59.054Z,8.89
2022-09-03T20:47:05.800Z,8.86
2022-09-03T20:50:22.246Z,8.83
2022-09-03T20:53:23.726Z,8.78
2022-09-03T20:56:35.739Z,8.74
2022-09-03T20:59:36.104Z,8.70
2022-09-03T21:03:20.121Z,8.66
2022-09-03T21:06:39.120Z,8.65
2022-09-03T21:10:05.322Z,8.65
2022-09-03T21:13:47.731Z,8.67
2022-09-03T21:17:00.544Z,8.67
2022-09-03T21:20:16.547Z,8.66
2022-09-03T21:23:21.929Z,8.64
2022-09-03T21:26:27.648Z,8.61
2022-09-03T21:29:32.999Z,8.59
2022-09-03T21:32:29.434Z,8.60
2022-09-03T21:35:43.090Z,8.62
2022-09-03T21:38:38.591Z,8.65
2022-09-03T21:41:49.700Z,8.69
2022-09-03T21:45:07.814Z,8.71
2022-09-03T21:48:18.550Z,8.75
2022-09-03T21:51:22.103Z,8.77
2022-09-03T21:54:19.164Z,8.77
2022-09-03T21:57:40.764Z,8.76
2022-09-03T22:00:32.792Z,8.77
2022-09-03T22:03:21.824Z,8.78
2022-09-03T22:06:25.769Z,8.82
2022-09-03T22:09:33.722Z,8.85
2022-09-03T22:12:40.187Z,8.91
2022-09-03T22:15:29.965Z,8.95
2022-09-03T22:18:28.812Z,8.99
2022-09-03T22:21:37.218Z,9.01
2022-09-03T22:24:48.218Z,9.03
2022-09-03T22:27:50.044Z,9.05
2022-09-03T22:31:13.032Z,9.07
2022-09-03T22:34:46.399Z,9.14
2022-09-03T22:38:01.909Z,9.27
2022-09-03T22:41:16.267Z,9.37
2022-09-03T22:44:22.879Z,9.52
2022-09-03T22:48:02.844Z,9.60
2022-09-03T22:51:00.637Z,9.68
2022-09-03T22:54:05.283Z,9.71
2022-09-03T22:56:56.319Z,9.72
2022-09-03T23:00:09.722Z,9.75
2022-09-03T23:03:07.971Z,9.77
2022-09-03T23:06:13.436Z,9.80
2022-09-03T23:09:36.994Z,9.84
2022-09-03T23:12:46.435Z,9.90
2022-09-03T23:15:38.700Z,9.94
2022-09-03T23:18:32.553Z,9.96
2022-09-03T23:21:41.181Z,9.99
2022-09-03T23:24:50.273Z,10.03
2022-09-03T23:27:53.682Z,10.04
2022-09-03T23:30:41.905Z,10.03
2022-09-03T23:33:29.568Z,10.00
2022-09-03T23:36:50.997Z,9.99
2022-09-03T23:40:16.380Z,10.03
2022-09-03T23:43:14.380Z,10.04
2022-09-03T23:46:19.065Z,10.07
2022-09-03T23:49:27.400Z,10.11
2022-09-03T23:52:20.980Z,10.14
2022-09-03T23:55:41.608Z,10.19
2022-09-03T23:58:44.351Z,10.17
